Aeroporto :
LOGIN :

Iscrizione | Disclaimer

   EN    FR    IT 

 










Sommario :    VFR   VFR Marginale   IFR   IFR Intensivo   IFR Molto Intensivo
Visibilità : 
Base nubi : 
>= 8 km
>= 3000ft
5 / 8 km
1000 / 3000 ft
1500m / 5 km
500 / 1000 ft
800 / 1500m
200 / 500 ft
< 800m
< 200 ft
Simboli :   Temporali  Nebbia  Neve Forte  Precipitazioni Forti  Vento > 20 kt
SIGMETs :   Varie  Temporali  Ghiacco  Turbolenza  Onda orograficha  Ceneri Vulcaniche






- Altitudine del aeroporto : 755 ft
- Codice IATA : DRS


EDDC - Dresden Klotzsche

ULTIMO METAR :
  • 190720Z 28005KT 240V310 9999 BKN009 BKN016 02/01 Q1030 NOSIG

METARs OBSOLETI :
  • 190650Z 29005KT 9999 BKN010 02/01 Q1030 TEMPO BKN009
  • 190620Z 28004KT 250V310 9999 BKN011 02/00 Q1029 TEMPO BKN009
  • 190550Z 27004KT 240V300 9999 BKN011 BKN017 02/00 Q1029 TEMPO BKN009
  • 190520Z 27004KT 9999 BKN017TCU 02/00 Q1028 TEMPO BKN014
  • 190450Z 28005KT 250V310 9999 -SHRA BKN013TCU 02/00 Q1028 TEMPO BKN008

TAF TAF EDDC
Valido dal 19 a 06 ore il 20 a 06 ore UTC


190500Z 1906/2006 28005KT 9999 BKN014
PROB40
TEMPO 1906/1911 2500 -SNRA BKN006TCU
BECMG 1911/1915 SCT012 BKN025
TEMPO 1915/1920 BKN013
TEMPO 1922/2006 3500 BR BKN004



MetMap, La meteo Aeronautica in un colpo d'occhio ! - Copyright ORBIFLY Dicembre 2007 - Disclaimer

ORBIFLY MET'MAP TEAM :

Programmazione e sviluppo : Alexandra Zaïnal
Concezione : Baudouin d'Aumeries
Aiuto per la programmazione : Marc-Olivier Méhu
Supporto tecnico e logistico : Manuel Goepfert
Aiuto per la traduzione : Arnaldo La Scala

Contatto : metmap@orbifly.com




FONTI E CREDITI :

   NOAA